Time;durP1;ratioP1;P1;durP2;ratioP2;P2;SDS_P1;SDS_P2;PMS_P1;PMS_P2;Temp;Humidity;BMP_temperature;BMP_pressure;BME280_temperature;BME280_humidity;BME280_pressure;Samples;Min_cycle;Max_cycle;Signal;HPM_P1;HPM_P2
2022/09/24 00:01:26;;;;;;;0.53;0.53;;;12.40;99.90;;;;;;5029649;28;20193;-79
2022/09/24 00:03:55;;;;;;;0.60;0.50;;;12.20;99.90;;;;;;5032458;28;20190;-79
2022/09/24 00:06:21;;;;;;;0.10;0.10;;;12.10;99.90;;;;;;5029039;28;20208;-79
2022/09/24 00:08:50;;;;;;;0.50;0.40;;;11.90;99.90;;;;;;5033741;28;20199;-79
2022/09/24 00:11:18;;;;;;;1.03;0.30;;;11.80;99.90;;;;;;5030647;28;20204;-79
2022/09/24 00:13:44;;;;;;;0.40;0.40;;;11.80;99.90;;;;;;5029348;28;20287;-79
2022/09/24 00:16:12;;;;;;;0.40;0.40;;;11.70;99.90;;;;;;5029858;28;20262;-79
2022/09/24 00:18:38;;;;;;;0.73;0.37;;;11.70;99.90;;;;;;5029597;28;20187;-79
2022/09/24 00:21:16;;;;;;;0.40;0.40;;;11.80;99.90;;;;;;5030471;28;20190;-80
2022/09/24 00:23:42;;;;;;;0.40;0.40;;;11.80;99.90;;;;;;5032702;28;20189;-79
2022/09/24 00:28:58;;;;;;;0.87;0.50;;;11.80;99.90;;;;;;5032811;28;20227;-79
2022/09/24 00:31:24;;;;;;;0.10;0.10;;;11.90;99.90;;;;;;5033284;28;20190;-79
2022/09/24 00:33:51;;;;;;;0.10;0.10;;;12.00;99.90;;;;;;5030770;28;20187;-79
2022/09/24 00:36:18;;;;;;;1.10;0.30;;;12.00;99.90;;;;;;5030674;28;20671;-79
2022/09/24 00:38:43;;;;;;;0.23;0.23;;;12.10;99.90;;;;;;5030751;28;20199;-79
2022/09/24 00:41:09;;;;;;;0.20;0.20;;;12.10;99.90;;;;;;5033119;28;20181;-79
2022/09/24 00:43:37;;;;;;;0.63;0.33;;;12.10;99.90;;;;;;5030379;28;20230;-79
2022/09/24 00:46:22;;;;;;;0.30;0.30;;;12.20;99.90;;;;;;5029084;28;20252;-79
2022/09/24 00:48:52;;;;;;;1.00;0.97;;;12.10;99.90;;;;;;5031183;28;20185;-79
2022/09/24 00:51:20;;;;;;;0.33;0.33;;;12.10;99.90;;;;;;5031532;28;20287;-79
2022/09/24 00:53:49;;;;;;;0.57;0.57;;;12.10;99.90;;;;;;5030846;28;20182;-79
2022/09/24 00:56:16;;;;;;;0.40;0.40;;;12.10;99.90;;;;;;5030417;28;20221;-79
2022/09/24 00:58:46;;;;;;;0.73;0.30;;;12.10;99.90;;;;;;5031705;28;20636;-79
2022/09/24 01:01:12;;;;;;;0.60;0.60;;;12.10;99.90;;;;;;5030822;28;20647;-79
2022/09/24 01:03:40;;;;;;;0.30;0.30;;;12.10;99.90;;;;;;5030727;28;20671;-79
2022/09/24 01:06:07;;;;;;;0.50;0.47;;;12.10;99.90;;;;;;5030271;28;20202;-79
2022/09/24 01:08:32;;;;;;;0.20;0.20;;;12.10;99.90;;;;;;5028924;28;20195;-79
2022/09/24 01:11:26;;;;;;;0.40;0.40;;;12.00;99.90;;;;;;5029476;28;20178;-79
2022/09/24 01:14:19;;;;;;;1.40;0.30;;;12.00;99.90;;;;;;5031541;28;20183;-79
2022/09/24 01:17:19;;;;;;;1.40;0.57;;;12.00;99.90;;;;;;5030971;28;20305;-79
2022/09/24 01:20:20;;;;;;;0.20;0.20;;;11.70;99.90;;;;;;5031336;28;20190;-79
2022/09/24 01:23:17;;;;;;;0.20;0.20;;;11.50;99.90;;;;;;5030093;28;20219;-79
2022/09/24 01:25:53;;;;;;;0.83;0.47;;;11.30;99.90;;;;;;5034640;28;20303;-79
2022/09/24 01:28:32;;;;;;;0.60;0.53;;;11.40;99.90;;;;;;5031970;28;20277;-79
2022/09/24 01:31:22;;;;;;;0.20;0.20;;;11.40;99.90;;;;;;5037359;28;20684;-79
2022/09/24 01:33:52;;;;;;;0.47;0.47;;;11.50;99.90;;;;;;5034039;28;20602;-79
2022/09/24 01:36:19;;;;;;;0.30;0.30;;;11.60;99.90;;;;;;5035823;28;20256;-79
2022/09/24 01:38:48;;;;;;;0.73;0.40;;;11.50;99.90;;;;;;5035208;28;20667;-80
2022/09/24 01:41:16;;;;;;;0.20;0.20;;;11.50;99.90;;;;;;5036164;28;20189;-80
2022/09/24 01:43:42;;;;;;;0.43;0.43;;;11.50;99.90;;;;;;5050658;28;20178;-79
2022/09/24 01:46:09;;;;;;;0.30;0.30;;;11.50;99.90;;;;;;5033802;28;20258;-79
2022/09/24 01:48:38;;;;;;;0.83;0.83;;;11.50;99.90;;;;;;5031884;28;20193;-79
2022/09/24 01:51:27;;;;;;;0.10;0.10;;;11.50;99.90;;;;;;5035244;28;20251;-79
2022/09/24 01:54:11;;;;;;;1.30;0.30;;;11.50;99.90;;;;;;5034657;28;20231;-79
2022/09/24 01:57:08;;;;;;;0.10;0.10;;;11.40;99.90;;;;;;5034448;28;20212;-79
2022/09/24 01:59:39;;;;;;;0.37;0.37;;;11.40;99.90;;;;;;5026756;28;20193;-79
2022/09/24 02:02:11;;;;;;;5.20;0.30;;;11.40;99.90;;;;;;5032198;28;20186;-80
2022/09/24 02:04:45;;;;;;;0.20;0.20;;;11.30;99.90;;;;;;5030508;28;20667;-79
2022/09/24 02:07:16;;;;;;;0.20;0.20;;;11.30;99.90;;;;;;5029073;28;20188;-79
2022/09/24 02:09:42;;;;;;;0.20;0.20;;;11.20;99.90;;;;;;5035727;28;20189;-79
2022/09/24 02:12:28;;;;;;;0.47;0.30;;;11.20;99.90;;;;;;5036804;28;20669;-79
2022/09/24 02:15:06;;;;;;;0.20;0.20;;;11.20;99.90;;;;;;5034028;28;20331;-79
2022/09/24 02:17:35;;;;;;;0.40;0.20;;;11.20;99.90;;;;;;5036530;28;20313;-79
2022/09/24 02:20:03;;;;;;;0.30;0.30;;;11.20;99.90;;;;;;5035957;28;20194;-79
2022/09/24 02:22:31;;;;;;;0.20;0.20;;;11.10;99.90;;;;;;5035463;28;20182;-80
2022/09/24 02:24:59;;;;;;;0.70;0.30;;;11.20;99.90;;;;;;5039236;28;20229;-79
2022/09/24 02:27:27;;;;;;;0.20;0.20;;;11.20;99.90;;;;;;5036947;28;20239;-79
2022/09/24 02:29:57;;;;;;;0.20;0.20;;;11.20;99.90;;;;;;5039678;28;20194;-79
2022/09/24 02:32:28;;;;;;;0.37;0.30;;;11.10;99.90;;;;;;5040050;28;20190;-79
2022/09/24 02:34:58;;;;;;;0.20;0.20;;;11.10;99.90;;;;;;5035265;28;20206;-79
2022/09/24 02:37:24;;;;;;;0.70;0.57;;;11.10;99.90;;;;;;5038824;28;20214;-79
2022/09/24 02:39:50;;;;;;;0.77;0.30;;;11.10;99.90;;;;;;5034333;28;20213;-79
2022/09/24 02:42:18;;;;;;;0.30;0.30;;;11.10;99.90;;;;;;5038567;28;20913;-79
2022/09/24 02:44:43;;;;;;;0.40;0.40;;;11.10;99.90;;;;;;5033421;28;20210;-79
2022/09/24 02:47:10;;;;;;;0.50;0.50;;;11.10;99.90;;;;;;5036819;28;20535;-78
2022/09/24 02:49:35;;;;;;;0.37;0.37;;;11.10;99.90;;;;;;5035004;28;20331;-79
2022/09/24 02:52:01;;;;;;;1.33;0.40;;;11.10;99.90;;;;;;5035479;28;20296;-79
2022/09/24 02:54:27;;;;;;;0.63;0.50;;;11.10;99.90;;;;;;5034015;28;20192;-79
2022/09/24 02:56:53;;;;;;;0.20;0.20;;;11.00;99.90;;;;;;5032047;28;20218;-79
2022/09/24 02:59:18;;;;;;;0.17;0.17;;;10.90;99.90;;;;;;5034006;28;20220;-79
2022/09/24 03:01:44;;;;;;;0.30;0.30;;;10.90;99.90;;;;;;5031716;28;20186;-79
2022/09/24 03:04:10;;;;;;;0.93;0.70;;;10.70;99.90;;;;;;5031053;28;20646;-79
2022/09/24 03:06:36;;;;;;;0.70;0.67;;;10.50;99.90;;;;;;5032175;28;20213;-79
2022/09/24 03:09:03;;;;;;;0.10;0.10;;;10.30;99.90;;;;;;5032102;28;20197;-79
2022/09/24 03:11:30;;;;;;;0.37;0.37;;;10.20;99.90;;;;;;5034069;28;20204;-79
2022/09/24 03:13:55;;;;;;;0.47;0.40;;;10.30;99.90;;;;;;5035094;28;20220;-79
2022/09/24 03:16:21;;;;;;;0.20;0.20;;;10.50;99.90;;;;;;5035695;28;20306;-79
2022/09/24 03:18:47;;;;;;;0.33;0.33;;;10.60;99.90;;;;;;5034058;28;20189;-79
2022/09/24 03:21:14;;;;;;;0.20;0.20;;;10.50;99.90;;;;;;5033075;28;20295;-79
2022/09/24 03:23:40;;;;;;;0.10;0.10;;;10.30;99.90;;;;;;5033625;28;20728;-79
2022/09/24 03:26:06;;;;;;;0.10;0.10;;;10.40;99.90;;;;;;5031868;28;20198;-79
2022/09/24 03:28:31;;;;;;;0.20;0.20;;;10.50;99.90;;;;;;5030924;28;20785;-78
2022/09/24 03:31:00;;;;;;;0.20;0.20;;;10.50;99.90;;;;;;5032730;28;20682;-79
2022/09/24 03:33:36;;;;;;;0.50;0.50;;;10.30;99.90;;;;;;5030917;28;20237;-79
2022/09/24 03:36:09;;;;;;;0.20;0.20;;;10.40;99.90;;;;;;5029151;28;20679;-79
2022/09/24 03:38:35;;;;;;;0.57;0.57;;;10.20;99.90;;;;;;5034264;28;20187;-79
2022/09/24 03:41:02;;;;;;;0.53;0.53;;;10.00;99.90;;;;;;5033082;28;20301;-79
2022/09/24 03:43:27;;;;;;;0.20;0.20;;;10.00;99.90;;;;;;5032351;28;20189;-79
2022/09/24 03:45:54;;;;;;;0.53;0.20;;;10.00;99.90;;;;;;5031500;28;20563;-79
2022/09/24 03:48:21;;;;;;;0.20;0.20;;;9.90;99.90;;;;;;5032257;28;20190;-79
2022/09/24 03:50:46;;;;;;;0.20;0.20;;;9.80;99.90;;;;;;5033593;28;20248;-78
2022/09/24 03:53:13;;;;;;;0.27;0.27;;;9.80;99.90;;;;;;5029426;28;20192;-79
2022/09/24 03:55:43;;;;;;;0.10;0.10;;;9.80;99.90;;;;;;5017605;28;20218;-79
2022/09/24 03:58:10;;;;;;;0.40;0.40;;;10.00;99.90;;;;;;5029361;28;20211;-79
2022/09/24 04:00:35;;;;;;;0.20;0.20;;;10.10;99.90;;;;;;5032140;28;20194;-78
2022/09/24 04:03:01;;;;;;;0.17;0.17;;;10.30;99.90;;;;;;5027805;28;20183;-78
2022/09/24 04:05:29;;;;;;;0.30;0.30;;;10.40;99.90;;;;;;5030304;28;20198;-79
2022/09/24 04:07:55;;;;;;;0.20;0.20;;;10.50;99.90;;;;;;5032843;28;20190;-79
2022/09/24 04:10:21;;;;;;;0.10;0.10;;;10.60;99.90;;;;;;5030288;28;20199;-80
2022/09/24 04:12:47;;;;;;;0.30;0.30;;;10.70;99.90;;;;;;5031406;28;20190;-78
2022/09/24 04:15:15;;;;;;;0.10;0.10;;;10.80;99.90;;;;;;5030185;28;20582;-79
2022/09/24 04:17:40;;;;;;;0.10;0.10;;;10.90;99.90;;;;;;5032651;28;20200;-79
2022/09/24 04:20:07;;;;;;;0.50;0.50;;;11.00;99.90;;;;;;5031388;28;20247;-78
2022/09/24 04:22:33;;;;;;;0.27;0.27;;;11.00;99.90;;;;;;5031250;28;20196;-78
2022/09/24 04:24:59;;;;;;;0.40;0.33;;;11.00;99.90;;;;;;5031380;28;20201;-79
2022/09/24 04:27:24;;;;;;;0.20;0.20;;;11.10;99.90;;;;;;5031334;28;21145;-79
2022/09/24 04:29:50;;;;;;;0.23;0.23;;;11.20;99.90;;;;;;5031287;28;20326;-79
2022/09/24 04:32:15;;;;;;;0.60;0.43;;;11.10;99.90;;;;;;5030856;28;20197;-78
2022/09/24 04:34:41;;;;;;;0.63;0.63;;;11.20;99.90;;;;;;5031288;28;20663;-79
2022/09/24 04:37:08;;;;;;;0.20;0.20;;;11.20;99.90;;;;;;5029788;28;20251;-79
2022/09/24 04:39:33;;;;;;;0.60;0.60;;;11.20;99.90;;;;;;5030168;28;20720;-79
2022/09/24 04:41:59;;;;;;;0.53;0.53;;;11.20;99.90;;;;;;5031321;28;20182;-79
2022/09/24 04:44:24;;;;;;;0.27;0.27;;;11.20;99.90;;;;;;5030572;28;20203;-79
2022/09/24 04:46:50;;;;;;;0.37;0.37;;;11.20;99.90;;;;;;5030848;28;20212;-79
2022/09/24 04:49:15;;;;;;;0.20;0.20;;;11.10;99.90;;;;;;5033830;28;20202;-79
2022/09/24 04:51:41;;;;;;;0.20;0.20;;;11.20;99.90;;;;;;5032637;28;20200;-79
2022/09/24 04:54:08;;;;;;;0.37;0.37;;;11.10;99.90;;;;;;5033456;28;20217;-78
2022/09/24 04:56:33;;;;;;;0.10;0.10;;;11.10;99.90;;;;;;5031583;28;20208;-78
2022/09/24 04:58:59;;;;;;;0.20;0.20;;;11.00;99.90;;;;;;5036383;28;20292;-78
2022/09/24 05:01:25;;;;;;;0.30;0.30;;;10.90;99.90;;;;;;5038600;28;20195;-78
2022/09/24 05:03:51;;;;;;;0.10;0.10;;;10.90;99.90;;;;;;5037992;28;20185;-78
2022/09/24 05:06:16;;;;;;;0.20;0.20;;;10.90;99.90;;;;;;5037660;28;20718;-78
2022/09/24 05:08:41;;;;;;;2.13;0.30;;;11.00;99.90;;;;;;5053757;28;20662;-78
2022/09/24 05:11:07;;;;;;;0.20;0.20;;;10.90;99.90;;;;;;5038146;28;20182;-78
2022/09/24 05:13:34;;;;;;;0.37;0.20;;;10.90;99.90;;;;;;5037204;28;20182;-78
2022/09/24 05:16:01;;;;;;;0.10;0.10;;;10.80;99.90;;;;;;5036075;28;20219;-78
2022/09/24 05:18:26;;;;;;;0.30;0.30;;;10.80;99.90;;;;;;5037243;28;20215;-78
2022/09/24 05:20:52;;;;;;;0.50;0.40;;;10.80;99.90;;;;;;5037638;28;20334;-79
2022/09/24 05:23:18;;;;;;;0.37;0.30;;;10.90;99.90;;;;;;5036113;28;20200;-78
2022/09/24 05:28:28;;;;;;;0.13;0.13;;;10.90;99.90;;;;;;5037868;28;20757;-78
2022/09/24 05:30:58;;;;;;;0.30;0.30;;;10.90;99.90;;;;;;5038207;28;20288;-78
2022/09/24 05:33:23;;;;;;;0.73;0.40;;;11.00;99.90;;;;;;5056201;28;20194;-78
2022/09/24 05:35:53;;;;;;;0.23;0.23;;;11.00;99.90;;;;;;5039289;28;20238;-79
2022/09/24 05:38:19;;;;;;;0.83;0.30;;;10.90;99.90;;;;;;5037293;28;20297;-79
2022/09/24 05:40:47;;;;;;;2.03;0.90;;;11.00;99.90;;;;;;5038084;28;20269;-78
2022/09/24 05:43:13;;;;;;;0.83;0.20;;;11.00;99.90;;;;;;5036437;28;20683;-78
2022/09/24 05:45:40;;;;;;;0.27;0.27;;;11.10;99.90;;;;;;5038645;28;20213;-78
2022/09/24 05:48:06;;;;;;;0.50;0.50;;;11.10;99.90;;;;;;5037443;28;20189;-78
2022/09/24 05:50:33;;;;;;;0.20;0.20;;;11.10;99.90;;;;;;5037593;28;20202;-78
2022/09/24 05:53:00;;;;;;;0.50;0.50;;;11.10;99.90;;;;;;5039381;28;20189;-78
2022/09/24 05:55:25;;;;;;;0.23;0.23;;;11.10;99.90;;;;;;5038057;28;20273;-78
2022/09/24 05:57:51;;;;;;;0.50;0.50;;;11.20;99.90;;;;;;5038215;28;20214;-78
2022/09/24 06:00:17;;;;;;;0.63;0.50;;;11.20;99.90;;;;;;5038395;28;20197;-78
2022/09/24 06:02:42;;;;;;;0.67;0.67;;;11.20;99.90;;;;;;5037990;28;20263;-79
2022/09/24 06:05:08;;;;;;;0.23;0.23;;;11.30;99.90;;;;;;5037797;28;20220;-79
2022/09/24 06:07:34;;;;;;;0.30;0.30;;;11.30;99.90;;;;;;5037137;28;20662;-80
2022/09/24 06:09:59;;;;;;;0.30;0.30;;;11.30;99.90;;;;;;5032099;28;20193;-79
2022/09/24 06:12:25;;;;;;;0.27;0.27;;;11.40;99.90;;;;;;5032495;28;20193;-79
2022/09/24 06:14:52;;;;;;;0.33;0.33;;;11.40;99.90;;;;;;5032137;28;20303;-80
2022/09/24 06:17:18;;;;;;;0.23;0.23;;;11.50;99.90;;;;;;5034409;28;20214;-80
2022/09/24 06:19:46;;;;;;;0.40;0.40;;;11.60;99.90;;;;;;5029858;28;20441;-79
2022/09/24 06:22:12;;;;;;;0.40;0.40;;;11.60;99.90;;;;;;5031442;28;20183;-79
2022/09/24 06:24:37;;;;;;;0.30;0.30;;;11.70;99.90;;;;;;5032980;28;20199;-79
2022/09/24 06:27:03;;;;;;;0.30;0.30;;;11.60;99.90;;;;;;5025077;28;20195;-79
2022/09/24 06:29:28;;;;;;;2.73;1.13;;;11.70;99.90;;;;;;5032039;28;20208;-79
2022/09/24 06:31:54;;;;;;;0.40;0.40;;;11.50;99.90;;;;;;5034001;28;20207;-79
2022/09/24 06:34:19;;;;;;;0.20;0.20;;;11.50;99.90;;;;;;5035843;28;20877;-79
2022/09/24 06:36:45;;;;;;;0.67;0.67;;;11.70;99.90;;;;;;5031677;28;20689;-79
2022/09/24 06:39:10;;;;;;;0.40;0.30;;;11.80;99.90;;;;;;5032504;28;20180;-79
2022/09/24 06:41:36;;;;;;;0.30;0.30;;;11.90;99.90;;;;;;5034166;28;20277;-79
2022/09/24 06:44:01;;;;;;;0.20;0.20;;;12.00;99.90;;;;;;5033947;28;20190;-79
2022/09/24 06:46:27;;;;;;;0.20;0.20;;;11.80;99.90;;;;;;5029605;28;20206;-79
2022/09/24 06:48:53;;;;;;;0.40;0.30;;;12.00;99.90;;;;;;5032089;28;20190;-79
2022/09/24 06:51:19;;;;;;;0.57;0.57;;;12.20;99.90;;;;;;5031731;28;20899;-79
2022/09/24 06:53:45;;;;;;;0.30;0.30;;;12.00;99.90;;;;;;5030263;28;20271;-79
2022/09/24 06:56:10;;;;;;;0.37;0.37;;;12.10;99.90;;;;;;5031159;28;20205;-79
2022/09/24 06:58:36;;;;;;;0.30;0.30;;;12.00;99.90;;;;;;5031880;28;20693;-79
2022/09/24 07:01:02;;;;;;;0.40;0.40;;;11.90;99.90;;;;;;5035287;28;20175;-79
2022/09/24 07:03:30;;;;;;;0.50;0.50;;;12.00;99.90;;;;;;5031189;28;20189;-79
2022/09/24 07:05:59;;;;;;;0.23;0.23;;;12.30;99.90;;;;;;5033308;28;20287;-80
2022/09/24 07:08:25;;;;;;;0.30;0.30;;;12.60;99.90;;;;;;5033301;28;20237;-79
2022/09/24 07:10:51;;;;;;;0.17;0.17;;;12.60;99.90;;;;;;5033407;28;20220;-79
2022/09/24 07:13:17;;;;;;;0.57;0.40;;;12.90;99.90;;;;;;5033182;28;20186;-79
2022/09/24 07:15:44;;;;;;;0.30;0.30;;;13.10;99.90;;;;;;5031319;28;20213;-79
2022/09/24 07:18:10;;;;;;;0.30;0.20;;;13.50;99.90;;;;;;5030337;28;20657;-79
2022/09/24 07:20:36;;;;;;;1.27;0.50;;;13.50;99.90;;;;;;5033393;28;20539;-79
2022/09/24 07:23:03;;;;;;;0.20;0.20;;;13.60;99.90;;;;;;5031951;28;20231;-79
2022/09/24 07:25:29;;;;;;;0.63;0.40;;;14.10;99.90;;;;;;5031730;28;20591;-79
2022/09/24 07:27:54;;;;;;;0.30;0.30;;;14.70;99.90;;;;;;5032898;28;20192;-79
2022/09/24 07:30:20;;;;;;;0.30;0.30;;;15.00;99.90;;;;;;5027602;28;20192;-79
2022/09/24 07:32:46;;;;;;;2.10;0.50;;;15.30;99.90;;;;;;5034026;28;20197;-79
2022/09/24 07:35:11;;;;;;;1.90;1.03;;;15.60;99.90;;;;;;5029778;28;20735;-79
2022/09/24 07:37:37;;;;;;;0.20;0.20;;;15.70;99.90;;;;;;5031542;28;20723;-79
2022/09/24 07:40:02;;;;;;;0.40;0.40;;;15.80;99.90;;;;;;5032355;28;20224;-79
2022/09/24 07:42:28;;;;;;;0.23;0.23;;;16.00;99.90;;;;;;5032681;28;20193;-79
2022/09/24 07:44:55;;;;;;;1.13;0.67;;;15.80;99.90;;;;;;5028910;28;20209;-79
2022/09/24 07:47:21;;;;;;;0.50;0.30;;;15.90;99.90;;;;;;5030827;28;20200;-79
2022/09/24 07:49:47;;;;;;;2.57;0.67;;;16.10;99.90;;;;;;5031600;28;20188;-80
2022/09/24 07:52:12;;;;;;;1.37;0.40;;;16.10;99.90;;;;;;5029417;28;20546;-79
2022/09/24 07:54:38;;;;;;;1.53;1.43;;;15.90;99.90;;;;;;5033673;28;20199;-80
2022/09/24 07:57:11;;;;;;;0.50;0.50;;;15.60;99.90;;;;;;5034076;28;21048;-80
2022/09/24 07:59:37;;;;;;;0.63;0.43;;;15.50;99.90;;;;;;5033107;28;20307;-80
2022/09/24 08:02:02;;;;;;;0.40;0.40;;;15.40;99.90;;;;;;5035258;28;20909;-79
2022/09/24 08:04:28;;;;;;;0.60;0.60;;;15.40;99.90;;;;;;5033699;28;20184;-80
2022/09/24 08:06:53;;;;;;;0.30;0.30;;;15.40;99.90;;;;;;5033942;28;20185;-80
2022/09/24 08:09:19;;;;;;;0.40;0.40;;;15.40;99.90;;;;;;5030428;28;20192;-80
2022/09/24 08:11:45;;;;;;;0.93;0.63;;;15.50;99.90;;;;;;5028682;28;20189;-80
2022/09/24 08:14:11;;;;;;;1.23;0.63;;;15.70;99.90;;;;;;5027099;28;20180;-80
2022/09/24 08:16:38;;;;;;;0.63;0.63;;;16.00;99.90;;;;;;5028431;28;20228;-80
2022/09/24 08:19:03;;;;;;;0.77;0.63;;;16.50;99.90;;;;;;5030624;28;20196;-80
2022/09/24 08:21:29;;;;;;;0.73;0.73;;;16.90;99.90;;;;;;5030585;28;20558;-80
2022/09/24 08:23:55;;;;;;;1.43;0.80;;;17.40;99.90;;;;;;5030286;28;20182;-80
2022/09/24 08:26:20;;;;;;;0.70;0.63;;;17.50;99.90;;;;;;5030276;28;20620;-80
2022/09/24 08:28:48;;;;;;;0.30;0.30;;;17.50;99.90;;;;;;5029244;28;20694;-79
2022/09/24 08:31:15;;;;;;;1.70;0.40;;;17.60;99.90;;;;;;5032720;28;20196;-80
2022/09/24 08:33:40;;;;;;;0.70;0.70;;;17.60;99.90;;;;;;5029713;28;20188;-80
2022/09/24 08:36:08;;;;;;;0.70;0.70;;;18.00;99.90;;;;;;5029886;28;20204;-80
2022/09/24 08:38:33;;;;;;;0.73;0.73;;;18.20;99.90;;;;;;5045349;28;20225;-80
2022/09/24 08:41:11;;;;;;;1.00;1.00;;;18.00;99.90;;;;;;5029941;28;20185;-80
2022/09/24 08:44:01;;;;;;;0.83;0.83;;;18.20;99.90;;;;;;5032218;28;20284;-81
2022/09/24 08:49:34;;;;;;;2.63;2.03;;;18.60;99.90;;;;;;5033225;28;20193;-80
2022/09/24 08:52:13;;;;;;;4.07;0.97;;;18.90;99.90;;;;;;5031001;28;20670;-80
2022/09/24 08:54:40;;;;;;;0.93;0.70;;;18.80;99.90;;;;;;5030677;28;20190;-80
2022/09/24 08:57:13;;;;;;;2.23;1.27;;;18.90;99.90;;;;;;5031660;28;20245;-80
2022/09/24 08:59:43;;;;;;;1.50;0.90;;;18.80;99.90;;;;;;5042668;28;20192;-80
2022/09/24 09:02:47;;;;;;;1.03;1.03;;;18.90;99.90;;;;;;5031237;28;20268;-81
2022/09/24 09:05:37;;;;;;;0.97;0.70;;;19.10;99.90;;;;;;5030333;28;22003;-80
2022/09/24 09:08:35;;;;;;;1.50;0.70;;;19.40;99.90;;;;;;5030571;28;20678;-80
2022/09/24 09:11:03;;;;;;;1.27;1.17;;;19.70;99.90;;;;;;5030161;28;20799;-80
2022/09/24 09:13:41;;;;;;;1.93;1.43;;;19.10;99.90;;;;;;5027782;28;20555;-80
2022/09/24 09:16:18;;;;;;;0.77;0.77;;;18.50;99.90;;;;;;5029417;28;20211;-80
2022/09/24 09:18:47;;;;;;;0.87;0.87;;;19.20;99.90;;;;;;5030976;28;20668;-80
2022/09/24 09:21:17;;;;;;;1.77;0.47;;;19.50;99.90;;;;;;5029598;28;20194;-80
2022/09/24 09:23:52;;;;;;;1.03;0.87;;;18.80;99.90;;;;;;5027534;28;20178;-80
2022/09/24 09:26:21;;;;;;;0.90;0.90;;;19.30;99.90;;;;;;5029294;28;20212;-80
2022/09/24 09:28:48;;;;;;;1.20;1.10;;;19.40;99.90;;;;;;5031444;28;20182;-79
2022/09/24 09:31:44;;;;;;;1.70;0.80;;;19.50;99.90;;;;;;5030282;28;20571;-80
2022/09/24 09:34:30;;;;;;;1.40;1.20;;;19.40;99.90;;;;;;5031551;28;20181;-80
2022/09/24 09:37:31;;;;;;;0.80;0.80;;;19.50;99.90;;;;;;5030521;28;20749;-80
2022/09/24 09:40:16;;;;;;;0.77;0.77;;;19.50;99.90;;;;;;5030453;28;20595;-80
2022/09/24 09:42:44;;;;;;;0.33;0.30;;;19.60;99.90;;;;;;5025442;28;20213;-80
2022/09/24 09:45:18;;;;;;;0.80;0.80;;;19.70;99.90;;;;;;5028777;28;20280;-79
2022/09/24 09:47:53;;;;;;;0.97;0.70;;;19.80;99.90;;;;;;5032404;28;20212;-80
2022/09/24 09:50:49;;;;;;;2.27;0.93;;;19.80;99.90;;;;;;5034599;28;20182;-80
2022/09/24 09:53:22;;;;;;;0.80;0.80;;;19.70;99.90;;;;;;5034279;28;20190;-80
2022/09/24 09:56:07;;;;;;;0.87;0.87;;;19.70;99.90;;;;;;5036217;28;20661;-80
2022/09/24 09:58:33;;;;;;;0.60;0.60;;;19.90;99.90;;;;;;5031545;28;20197;-80
2022/09/24 10:01:08;;;;;;;0.60;0.60;;;19.70;99.90;;;;;;5033375;28;20529;-80
2022/09/24 10:03:51;;;;;;;0.77;0.77;;;19.60;99.90;;;;;;5035111;28;20179;-80
2022/09/24 10:06:28;;;;;;;1.67;0.80;;;19.30;99.90;;;;;;5033458;28;20211;-80
2022/09/24 10:09:07;;;;;;;2.60;1.17;;;18.80;99.90;;;;;;5034998;28;20303;-80
2022/09/24 10:11:32;;;;;;;0.80;0.67;;;18.60;99.90;;;;;;5035475;28;20170;-80
2022/09/24 10:14:03;;;;;;;0.70;0.70;;;18.20;99.90;;;;;;5032459;28;20183;-80
2022/09/24 10:16:29;;;;;;;3.10;0.90;;;18.20;99.90;;;;;;5032666;28;20205;-80
2022/09/24 10:18:54;;;;;;;1.97;1.60;;;18.30;99.90;;;;;;5031800;28;20520;-80
2022/09/24 10:21:38;;;;;;;1.70;0.83;;;18.60;99.90;;;;;;5031905;28;20197;-80
2022/09/24 10:24:10;;;;;;;0.57;0.57;;;18.80;99.90;;;;;;5028891;28;20192;-80
2022/09/24 10:26:41;;;;;;;0.73;0.57;;;19.10;99.90;;;;;;5034501;28;20206;-80
2022/09/24 10:32:03;;;;;;;1.00;0.93;;;19.50;99.90;;;;;;5035405;28;20660;-80
2022/09/24 10:34:28;;;;;;;1.20;0.83;;;19.60;99.90;;;;;;5031550;28;20189;-81
2022/09/24 10:37:03;;;;;;;1.97;1.10;;;19.80;99.90;;;;;;5032136;28;20207;-80
2022/09/24 10:39:29;;;;;;;3.33;1.10;;;19.90;99.90;;;;;;5030127;28;20184;-80
2022/09/24 10:41:56;;;;;;;0.80;0.80;;;20.00;99.90;;;;;;5035374;28;20187;-80
2022/09/24 10:44:25;;;;;;;1.87;1.33;;;20.10;99.90;;;;;;5034309;28;20251;-80
2022/09/24 10:47:10;;;;;;;1.00;0.90;;;19.90;99.90;;;;;;5028772;28;20201;-80
2022/09/24 10:49:56;;;;;;;4.90;0.97;;;20.10;99.90;;;;;;5034793;28;20185;-82
2022/09/24 10:52:41;;;;;;;2.70;1.10;;;20.00;99.90;;;;;;5034161;28;20203;-81
2022/09/24 10:55:13;;;;;;;1.87;0.97;;;19.80;99.90;;;;;;5034580;28;20296;-81
2022/09/24 10:58:01;;;;;;;1.73;1.30;;;19.80;99.90;;;;;;5033015;28;20307;-81
2022/09/24 11:00:38;;;;;;;0.73;0.73;;;19.50;99.90;;;;;;5033676;28;20277;-81
2022/09/24 11:03:26;;;;;;;1.03;1.03;;;20.00;99.90;;;;;;5032138;28;20580;-80
2022/09/24 11:05:55;;;;;;;2.27;1.57;;;20.20;99.90;;;;;;5035326;28;20220;-81
2022/09/24 11:08:50;;;;;;;1.10;1.00;;;19.80;99.90;;;;;;5034109;28;20185;-80
2022/09/24 11:11:39;;;;;;;0.97;0.77;;;20.20;99.90;;;;;;5030887;28;20757;-80
2022/09/24 11:14:05;;;;;;;0.83;0.70;;;20.50;99.90;;;;;;5031636;28;20212;-81
2022/09/24 11:16:43;;;;;;;1.07;0.90;;;20.30;99.90;;;;;;5033888;28;20210;-81
2022/09/24 11:19:24;;;;;;;1.63;1.53;;;20.40;99.90;;;;;;5033415;28;20182;-80
2022/09/24 11:22:01;;;;;;;1.07;0.87;;;19.90;99.90;;;;;;5029827;28;20213;-81
2022/09/24 11:24:59;;;;;;;2.40;0.90;;;19.60;99.90;;;;;;5025265;28;20280;-81
2022/09/24 11:27:37;;;;;;;3.00;0.87;;;19.80;99.90;;;;;;5034019;28;20625;-81
2022/09/24 11:30:13;;;;;;;1.00;0.90;;;20.20;99.90;;;;;;5035231;28;21175;-81
2022/09/24 11:33:06;;;;;;;0.63;0.53;;;20.40;99.90;;;;;;5034645;28;20213;-81
2022/09/24 11:35:51;;;;;;;0.50;0.50;;;20.70;99.90;;;;;;5034838;28;20225;-81
2022/09/24 11:38:48;;;;;;;1.57;0.80;;;20.90;99.90;;;;;;5034104;28;20208;-81
2022/09/24 11:41:43;;;;;;;0.67;0.67;;;20.10;99.90;;;;;;5034400;28;20178;-81
2022/09/24 11:44:10;;;;;;;1.03;0.67;;;20.40;99.90;;;;;;5033268;28;20178;-80
2022/09/24 11:46:50;;;;;;;0.30;0.30;;;20.40;99.90;;;;;;5034326;28;20536;-81
2022/09/24 11:49:29;;;;;;;0.93;0.80;;;20.60;99.90;;;;;;5033976;28;20189;-81
2022/09/24 11:52:13;;;;;;;1.03;0.93;;;21.00;99.90;;;;;;5033828;28;20255;-81
2022/09/24 11:55:08;;;;;;;3.80;0.90;;;21.20;99.90;;;;;;5033016;28;20652;-81
2022/09/24 11:57:57;;;;;;;0.43;0.43;;;21.40;99.90;;;;;;5009334;28;20579;-81
2022/09/24 12:00:28;;;;;;;0.30;0.30;;;21.40;99.90;;;;;;5008095;28;20628;-81
2022/09/24 12:03:18;;;;;;;0.63;0.50;;;21.50;99.90;;;;;;5035419;28;20608;-81
2022/09/24 12:05:52;;;;;;;0.73;0.70;;;21.70;99.90;;;;;;5032173;28;20202;-80
2022/09/24 12:08:27;;;;;;;2.77;1.13;;;21.80;99.90;;;;;;5033745;28;20185;-81
2022/09/24 12:11:05;;;;;;;1.20;0.80;;;21.60;99.90;;;;;;5034874;28;20285;-81
2022/09/24 12:13:40;;;;;;;0.50;0.50;;;21.60;99.90;;;;;;5032756;28;20190;-81
2022/09/24 12:16:13;;;;;;;1.10;1.10;;;21.60;99.90;;;;;;5033558;28;20239;-81
2022/09/24 12:18:46;;;;;;;1.77;1.07;;;21.40;99.90;;;;;;5032416;28;20228;-81
2022/09/24 12:21:19;;;;;;;2.70;0.93;;;21.30;99.90;;;;;;5035110;28;20644;-81
2022/09/24 12:23:46;;;;;;;1.00;0.80;;;20.90;99.90;;;;;;5031638;28;20190;-81
2022/09/24 12:26:16;;;;;;;0.67;0.43;;;21.00;99.90;;;;;;5033852;28;20198;-81
2022/09/24 12:35:24;;;;;;;0.57;0.57;;;20.40;99.90;;;;;;5035487;28;20226;-81
2022/09/24 12:37:55;;;;;;;0.30;0.30;;;20.50;99.90;;;;;;5033697;28;20255;-81
2022/09/24 12:40:38;;;;;;;1.40;0.80;;;20.40;99.90;;;;;;5033126;28;20208;-81
2022/09/24 12:43:14;;;;;;;1.10;0.73;;;20.00;99.90;;;;;;5033213;28;20182;-81
2022/09/24 12:45:40;;;;;;;0.77;0.77;;;20.30;99.90;;;;;;5035149;28;20202;-80
2022/09/24 12:48:13;;;;;;;1.20;0.77;;;20.40;99.90;;;;;;5033247;28;21094;-81
2022/09/24 12:50:39;;;;;;;1.17;0.80;;;20.50;99.90;;;;;;5033564;28;20751;-81
2022/09/24 12:53:23;;;;;;;1.00;0.93;;;20.40;99.90;;;;;;5033327;28;20261;-80
2022/09/24 12:55:49;;;;;;;1.27;0.73;;;20.40;99.90;;;;;;5032467;28;20202;-81
2022/09/24 12:58:38;;;;;;;2.60;0.70;;;20.30;99.90;;;;;;5031253;28;20226;-80
2022/09/24 13:01:10;;;;;;;0.50;0.50;;;20.50;99.90;;;;;;5031674;28;20185;-80
2022/09/24 13:03:40;;;;;;;0.30;0.30;;;20.10;99.90;;;;;;5030972;28;20191;-80
2022/09/24 13:06:31;;;;;;;0.40;0.40;;;19.90;99.90;;;;;;5027436;28;20617;-79
2022/09/24 13:08:57;;;;;;;0.77;0.77;;;20.20;99.90;;;;;;5031865;28;20190;-79
2022/09/24 13:11:30;;;;;;;0.30;0.30;;;20.30;99.90;;;;;;5033592;28;20185;-79
2022/09/24 13:14:26;;;;;;;0.63;0.63;;;20.50;99.90;;;;;;5026130;28;20258;-79
2022/09/24 13:16:55;;;;;;;0.43;0.43;;;20.60;99.90;;;;;;5009007;28;20638;-80
2022/09/24 13:19:24;;;;;;;0.63;0.57;;;20.70;99.90;;;;;;5033278;28;20195;-79
2022/09/24 13:21:58;;;;;;;0.50;0.50;;;20.40;99.90;;;;;;5035052;28;21181;-79
2022/09/24 13:24:29;;;;;;;0.50;0.50;;;20.60;99.90;;;;;;5033767;28;20189;-79
2022/09/24 13:27:36;;;;;;;0.40;0.40;;;20.70;99.90;;;;;;5033466;28;20193;-80